createdAt,value
2017-03-07T00:00:13.462Z,4.2
2017-03-07T00:00:32.097Z,4.2
2017-03-07T00:00:50.750Z,4.3
2017-03-07T00:01:09.398Z,4.3
2017-03-07T00:01:28.033Z,4.3
2017-03-07T00:01:46.662Z,4.3
2017-03-07T00:02:05.291Z,4.3
2017-03-07T00:02:23.953Z,4.2
2017-03-07T00:02:42.589Z,4.3
2017-03-07T00:03:01.226Z,4.3
2017-03-07T00:03:19.858Z,4.3
2017-03-07T00:03:38.490Z,4.3
2017-03-07T00:03:57.131Z,4.3
2017-03-07T00:04:15.771Z,4.3
2017-03-07T00:04:34.406Z,4.3
2017-03-07T00:04:53.039Z,4.3
2017-03-07T00:05:11.678Z,4.3
2017-03-07T00:05:30.327Z,4.2
2017-03-07T00:05:49.020Z,4.2
2017-03-07T00:06:07.652Z,4.2
2017-03-07T00:06:26.286Z,4.2
2017-03-07T00:06:44.918Z,4.2
2017-03-07T00:07:03.555Z,4.2
2017-03-07T00:07:22.187Z,4.2
2017-03-07T00:07:40.832Z,4.2
2017-03-07T00:07:59.462Z,4.2
2017-03-07T00:08:18.131Z,4.2
2017-03-07T00:08:36.769Z,4.2
2017-03-07T00:08:55.413Z,4.2
2017-03-07T00:09:14.054Z,4.2
2017-03-07T00:09:32.691Z,4.2
2017-03-07T00:09:51.332Z,4.2
2017-03-07T00:10:09.966Z,4.2
2017-03-07T00:10:28.603Z,4.2
2017-03-07T00:10:47.252Z,4.1
2017-03-07T00:11:05.896Z,4.1
2017-03-07T00:11:24.529Z,4.1
2017-03-07T00:11:43.186Z,4.1
2017-03-07T00:12:01.816Z,4.1
2017-03-07T00:12:20.470Z,4.1
2017-03-07T00:12:39.109Z,4.1
2017-03-07T00:12:57.742Z,4.1
2017-03-07T00:13:16.409Z,4.1
2017-03-07T00:13:35.063Z,4.1
2017-03-07T00:13:53.692Z,4.1
2017-03-07T00:14:12.340Z,4.1
2017-03-07T00:14:30.977Z,4.1
2017-03-07T00:14:49.621Z,4.1
2017-03-07T00:15:08.250Z,4.1
2017-03-07T00:15:26.883Z,4.1
2017-03-07T00:15:45.542Z,4.1
2017-03-07T00:16:04.175Z,4.1
2017-03-07T00:16:22.807Z,4.1
2017-03-07T00:16:41.444Z,4.1
2017-03-07T00:17:00.070Z,4.1
2017-03-07T00:17:18.702Z,4.1
2017-03-07T00:17:37.339Z,4.1
2017-03-07T00:17:55.974Z,4.1
2017-03-07T00:18:14.605Z,4.1
2017-03-07T00:18:33.232Z,4.1
2017-03-07T00:18:51.886Z,4.1
2017-03-07T00:19:10.548Z,4.1
2017-03-07T00:19:29.187Z,4.1
2017-03-07T00:19:47.825Z,4.1
2017-03-07T00:20:06.459Z,4.1
2017-03-07T00:20:25.105Z,4.1
2017-03-07T00:20:43.742Z,4.1
2017-03-07T00:21:02.384Z,4.1
2017-03-07T00:21:21.014Z,4.1
2017-03-07T00:21:39.653Z,4.1
2017-03-07T00:21:58.292Z,4.1
2017-03-07T00:22:16.951Z,4.1
2017-03-07T00:22:35.615Z,4.2
2017-03-07T00:22:54.253Z,4.2
2017-03-07T00:23:12.899Z,4.2
2017-03-07T00:23:31.545Z,4.2
2017-03-07T00:23:50.179Z,4.2
2017-03-07T00:24:08.825Z,4.2
2017-03-07T00:24:27.463Z,4.2
2017-03-07T00:24:46.101Z,4.2
2017-03-07T00:25:04.738Z,4.2
2017-03-07T00:25:23.389Z,4.2
2017-03-07T00:25:42.035Z,4.2
2017-03-07T00:26:00.685Z,4.2
2017-03-07T00:26:19.319Z,4.2
2017-03-07T00:26:37.968Z,4.2
2017-03-07T00:26:56.637Z,4.2
2017-03-07T00:27:15.280Z,4.2
2017-03-07T00:27:33.952Z,4.2
2017-03-07T00:27:52.593Z,4.2
2017-03-07T00:28:11.226Z,4.2
2017-03-07T00:28:29.861Z,4.2
2017-03-07T00:28:48.502Z,4.2
2017-03-07T00:29:07.132Z,4.2
2017-03-07T00:29:25.776Z,4.2
2017-03-07T00:29:44.416Z,4.2
2017-03-07T00:30:03.049Z,4.2
2017-03-07T00:30:21.692Z,4.2
2017-03-07T00:30:40.362Z,4.2
2017-03-07T00:30:59.002Z,4.2
2017-03-07T00:31:17.634Z,4.2
2017-03-07T00:31:36.264Z,4.2
2017-03-07T00:31:54.903Z,4.2
2017-03-07T00:32:13.536Z,4.2
2017-03-07T00:32:32.169Z,4.2
2017-03-07T00:32:50.818Z,4.2
2017-03-07T00:33:09.448Z,4.2
2017-03-07T00:33:28.082Z,4.2
2017-03-07T00:33:46.718Z,4.2
2017-03-07T00:34:05.372Z,4.2
2017-03-07T00:34:24.005Z,4.2
2017-03-07T00:34:42.660Z,4.2
2017-03-07T00:35:01.299Z,4.2
2017-03-07T00:35:19.931Z,4.2
2017-03-07T00:35:38.559Z,4.2
2017-03-07T00:35:57.190Z,4.2
2017-03-07T00:36:15.818Z,4.2
2017-03-07T00:36:34.473Z,4.2
2017-03-07T00:36:53.112Z,4.2
2017-03-07T00:37:11.751Z,4.2
2017-03-07T00:37:30.405Z,4.2
2017-03-07T00:37:49.034Z,4.2
2017-03-07T00:38:07.663Z,4.2
2017-03-07T00:38:26.293Z,4.2
2017-03-07T00:38:44.922Z,4.2
2017-03-07T00:39:03.548Z,4.2
2017-03-07T00:39:22.176Z,4.1
2017-03-07T00:39:40.811Z,4.1
2017-03-07T00:39:59.445Z,4.1
2017-03-07T00:40:18.073Z,4.1
2017-03-07T00:40:36.701Z,4.1
2017-03-07T00:40:55.348Z,4.1
2017-03-07T00:41:13.985Z,4.1
2017-03-07T00:41:32.624Z,4.1
2017-03-07T00:41:51.256Z,4.1
2017-03-07T00:42:09.899Z,4.1
2017-03-07T00:42:28.527Z,4.1
2017-03-07T00:42:47.158Z,4.1
2017-03-07T00:43:05.796Z,4.1
2017-03-07T00:43:24.445Z,4.1
2017-03-07T00:43:43.077Z,4.1
2017-03-07T00:44:01.707Z,4.1
2017-03-07T00:44:20.359Z,4.1
2017-03-07T00:44:38.988Z,4.1
2017-03-07T00:44:57.629Z,4.1
2017-03-07T00:45:16.281Z,4.1
2017-03-07T00:45:34.911Z,4.1
2017-03-07T00:45:53.539Z,4.1
2017-03-07T00:46:12.166Z,4.1
2017-03-07T00:46:30.817Z,4.1
2017-03-07T00:46:49.445Z,4.1
2017-03-07T00:47:08.075Z,4.1
2017-03-07T00:47:26.703Z,4.1
2017-03-07T00:47:45.361Z,4.1
2017-03-07T00:48:03.990Z,4.1
2017-03-07T00:48:22.622Z,4.1
2017-03-07T00:48:41.253Z,4.1
2017-03-07T00:48:59.881Z,4.1
2017-03-07T00:49:18.510Z,4.1
2017-03-07T00:49:37.133Z,4.1
2017-03-07T00:49:55.764Z,4.1
2017-03-07T00:50:14.391Z,4.1
2017-03-07T00:50:33.022Z,4.1
2017-03-07T00:50:51.654Z,4.1
2017-03-07T00:51:10.308Z,4.1
2017-03-07T00:51:28.942Z,4.1
2017-03-07T00:51:47.568Z,4.1
2017-03-07T00:52:06.196Z,4.1
2017-03-07T00:52:24.825Z,4.1
2017-03-07T00:52:43.454Z,4.1
2017-03-07T00:53:02.082Z,4.1
2017-03-07T00:53:20.722Z,4.1
2017-03-07T00:53:39.350Z,4.1
2017-03-07T00:53:57.982Z,4.1
2017-03-07T00:54:16.609Z,4.1
2017-03-07T00:54:35.266Z,4
2017-03-07T00:54:53.895Z,4
2017-03-07T00:55:12.533Z,4
2017-03-07T00:55:31.163Z,4
2017-03-07T00:55:49.794Z,4
2017-03-07T00:56:08.427Z,4
2017-03-07T00:56:27.067Z,4
2017-03-07T00:56:45.695Z,4
2017-03-07T00:57:04.327Z,4
2017-03-07T00:57:22.991Z,4
2017-03-07T00:57:41.620Z,4
2017-03-07T00:58:00.273Z,4
2017-03-07T00:58:18.919Z,4
2017-03-07T00:58:37.548Z,4
2017-03-07T00:58:56.184Z,4
2017-03-07T00:59:14.818Z,4
2017-03-07T00:59:33.455Z,4
2017-03-07T00:59:52.085Z,4
2017-03-07T01:00:10.712Z,4
2017-03-07T01:00:29.343Z,4
2017-03-07T01:00:47.975Z,4
2017-03-07T01:01:06.613Z,4
2017-03-07T01:01:25.264Z,4
2017-03-07T01:01:43.893Z,4
2017-03-07T01:02:02.532Z,4
2017-03-07T01:02:21.178Z,4
2017-03-07T01:02:39.802Z,4
2017-03-07T01:02:58.432Z,4
2017-03-07T01:03:17.073Z,3.9
2017-03-07T01:03:35.718Z,4
2017-03-07T01:03:54.355Z,3.9
2017-03-07T01:04:12.986Z,3.9
2017-03-07T01:04:31.615Z,3.9
2017-03-07T01:04:50.272Z,3.9
2017-03-07T01:05:08.900Z,4
2017-03-07T01:05:27.527Z,4
2017-03-07T01:05:46.172Z,4
2017-03-07T01:06:04.809Z,4
2017-03-07T01:06:23.474Z,4
2017-03-07T01:06:42.106Z,4
2017-03-07T01:07:00.739Z,4
2017-03-07T01:07:19.364Z,4
2017-03-07T01:07:37.989Z,3.9
2017-03-07T01:07:56.616Z,3.9
2017-03-07T01:08:15.280Z,3.9
2017-03-07T01:08:33.907Z,3.9
2017-03-07T01:08:52.532Z,3.8
2017-03-07T01:09:11.156Z,3.8
2017-03-07T01:09:29.784Z,3.7
2017-03-07T01:09:48.414Z,3.7
2017-03-07T01:10:07.056Z,3.7
2017-03-07T01:10:25.687Z,3.6
2017-03-07T01:10:44.324Z,3.6
2017-03-07T01:11:02.962Z,3.6
2017-03-07T01:11:21.589Z,3.6
2017-03-07T01:11:40.273Z,3.6
2017-03-07T01:11:58.907Z,3.5
2017-03-07T01:12:17.535Z,3.5
2017-03-07T01:12:36.177Z,3.5
2017-03-07T01:12:54.810Z,3.4
2017-03-07T01:13:13.440Z,3.4
2017-03-07T01:13:32.066Z,3.4
2017-03-07T01:13:50.698Z,3.4
2017-03-07T01:14:09.330Z,3.3
2017-03-07T01:14:27.961Z,3.3
2017-03-07T01:14:46.592Z,3.3
2017-03-07T01:15:05.262Z,3.3
2017-03-07T01:15:23.895Z,3.3
2017-03-07T01:15:42.526Z,3.3
2017-03-07T01:16:01.154Z,3.3
2017-03-07T01:16:19.780Z,3.3
2017-03-07T01:16:38.410Z,3.2
2017-03-07T01:16:57.043Z,3.3
2017-03-07T01:17:15.673Z,3.2
2017-03-07T01:17:34.305Z,3.2
2017-03-07T01:17:52.933Z,3.2
2017-03-07T01:18:11.561Z,3.2
2017-03-07T01:18:30.228Z,3.2
2017-03-07T01:18:48.854Z,3.2
2017-03-07T01:19:07.483Z,3.2
2017-03-07T01:19:26.114Z,3.2
2017-03-07T01:19:44.746Z,3.2
2017-03-07T01:20:03.377Z,3.3
2017-03-07T01:20:22.307Z,3.3
2017-03-07T01:20:40.941Z,3.3
2017-03-07T01:20:59.567Z,3.2
2017-03-07T01:21:18.199Z,3.2
2017-03-07T01:21:36.837Z,3.2
2017-03-07T01:21:55.465Z,3.2
2017-03-07T01:22:14.120Z,3.2
2017-03-07T01:22:32.754Z,3.2
2017-03-07T01:22:51.387Z,3.2
2017-03-07T01:23:10.029Z,3.2
2017-03-07T01:23:28.700Z,3.2
2017-03-07T01:23:47.323Z,3.2
2017-03-07T01:24:05.952Z,3.2
2017-03-07T01:24:24.585Z,3.2
2017-03-07T01:24:43.222Z,3.2
2017-03-07T01:25:01.852Z,3.3
2017-03-07T01:25:20.498Z,3.2
2017-03-07T01:25:39.122Z,3.2
2017-03-07T01:25:57.753Z,3.2
2017-03-07T01:26:16.382Z,3.2
2017-03-07T01:26:35.033Z,3.3
2017-03-07T01:26:53.692Z,3.3
2017-03-07T01:27:12.324Z,3.2
2017-03-07T01:27:30.972Z,3.2
2017-03-07T01:27:49.615Z,3.3
2017-03-07T01:28:08.246Z,3.2
2017-03-07T01:28:26.885Z,3.2
2017-03-07T01:28:45.523Z,3.2
2017-03-07T01:29:04.155Z,3.2
2017-03-07T01:29:22.786Z,3.3
2017-03-07T01:29:41.422Z,3.3
2017-03-07T01:30:00.065Z,3.3
2017-03-07T01:30:18.698Z,3.3
2017-03-07T01:30:37.330Z,3.3
2017-03-07T01:30:55.963Z,3.3
2017-03-07T01:31:14.608Z,3.3
2017-03-07T01:31:33.233Z,3.3
2017-03-07T01:31:51.858Z,3.3
2017-03-07T01:32:10.495Z,3.3
2017-03-07T01:32:29.129Z,3.3
2017-03-07T01:32:47.796Z,3.3
2017-03-07T01:33:06.422Z,3.3
2017-03-07T01:33:25.063Z,3.4
2017-03-07T01:33:43.708Z,3.4
2017-03-07T01:34:02.345Z,3.4
2017-03-07T01:34:20.977Z,3.4
2017-03-07T01:34:39.613Z,3.4
2017-03-07T01:34:58.238Z,3.4
2017-03-07T01:35:16.870Z,3.4
2017-03-07T01:35:35.500Z,3.4
2017-03-07T01:35:54.131Z,3.4
2017-03-07T01:36:12.765Z,3.4
2017-03-07T01:36:31.395Z,3.5
2017-03-07T01:36:50.044Z,3.5
2017-03-07T01:37:08.679Z,3.5
2017-03-07T01:37:27.309Z,3.5
2017-03-07T01:37:45.939Z,3.5
2017-03-07T01:38:04.575Z,3.5
2017-03-07T01:38:23.208Z,3.5
2017-03-07T01:38:41.836Z,3.6
2017-03-07T01:39:00.466Z,3.6
2017-03-07T01:39:19.099Z,3.6
2017-03-07T01:39:37.735Z,3.6
2017-03-07T01:39:56.379Z,3.6
2017-03-07T01:40:15.023Z,3.6
2017-03-07T01:40:33.658Z,3.6
2017-03-07T01:40:52.288Z,3.6
2017-03-07T01:41:10.917Z,3.6
2017-03-07T01:41:29.544Z,3.6
2017-03-07T01:41:48.173Z,3.6
2017-03-07T01:42:06.817Z,3.6
2017-03-07T01:42:25.452Z,3.6
2017-03-07T01:42:44.081Z,3.6
2017-03-07T01:43:02.723Z,3.6
2017-03-07T01:43:21.378Z,3.6
2017-03-07T01:43:40.035Z,3.6
2017-03-07T01:43:58.665Z,3.6
2017-03-07T01:44:17.314Z,3.6
2017-03-07T01:44:35.952Z,3.6
2017-03-07T01:44:54.581Z,3.6
2017-03-07T01:45:13.224Z,3.6
2017-03-07T01:45:31.866Z,3.6
2017-03-07T01:45:50.499Z,3.6
2017-03-07T01:46:09.137Z,3.6
2017-03-07T01:46:27.767Z,3.6
2017-03-07T01:46:46.406Z,3.6
2017-03-07T01:47:05.065Z,3.6
2017-03-07T01:47:23.712Z,3.5
2017-03-07T01:47:42.352Z,3.5
2017-03-07T01:48:00.990Z,3.5
2017-03-07T01:48:19.625Z,3.5
2017-03-07T01:48:38.270Z,3.5
2017-03-07T01:48:56.905Z,3.5
2017-03-07T01:49:15.545Z,3.5
2017-03-07T01:49:34.179Z,3.5
2017-03-07T01:49:52.812Z,3.5
2017-03-07T01:50:11.446Z,3.5
2017-03-07T01:50:30.111Z,3.5
2017-03-07T01:50:48.748Z,3.5
2017-03-07T01:51:07.390Z,3.5
2017-03-07T01:51:26.023Z,3.5
2017-03-07T01:51:44.654Z,3.5
2017-03-07T01:52:03.289Z,3.5
2017-03-07T01:52:21.933Z,3.5
2017-03-07T01:52:40.583Z,3.5
2017-03-07T01:52:59.218Z,3.5
2017-03-07T01:53:17.859Z,3.5
2017-03-07T01:53:36.511Z,3.5
2017-03-07T01:53:55.197Z,3.5
2017-03-07T01:54:13.847Z,3.5
2017-03-07T01:54:32.483Z,3.5
2017-03-07T01:54:51.125Z,3.5
2017-03-07T01:55:09.755Z,3.5
2017-03-07T01:55:28.397Z,3.5
2017-03-07T01:55:47.041Z,3.5
2017-03-07T01:56:06.722Z,3.5
2017-03-07T01:56:25.410Z,3.5
2017-03-07T01:56:44.044Z,3.5
2017-03-07T01:57:02.691Z,3.5
2017-03-07T01:57:21.322Z,3.4
2017-03-07T01:57:39.995Z,3.4
2017-03-07T01:57:58.628Z,3.4
2017-03-07T01:58:17.302Z,3.4
2017-03-07T01:58:35.938Z,3.5
2017-03-07T01:58:54.573Z,3.5
2017-03-07T01:59:13.226Z,3.5
2017-03-07T01:59:31.863Z,3.5
2017-03-07T01:59:50.500Z,3.5
2017-03-07T02:00:09.135Z,3.4
2017-03-07T02:00:27.776Z,3.5
2017-03-07T02:00:46.414Z,3.5
2017-03-07T02:01:05.092Z,3.5
2017-03-07T02:01:23.735Z,3.5
2017-03-07T02:01:42.367Z,3.5
2017-03-07T02:02:01.003Z,3.5
2017-03-07T02:02:19.634Z,3.5
2017-03-07T02:02:38.267Z,3.5
2017-03-07T02:02:56.898Z,3.5
2017-03-07T02:03:15.535Z,3.5
2017-03-07T02:03:34.178Z,3.5
2017-03-07T02:03:52.812Z,3.5
2017-03-07T02:04:11.455Z,3.5
2017-03-07T02:04:30.136Z,3.5
2017-03-07T02:04:48.771Z,3.5
2017-03-07T02:05:07.402Z,3.5
2017-03-07T02:05:26.044Z,3.5
2017-03-07T02:05:44.678Z,3.5
2017-03-07T02:06:03.312Z,3.5
2017-03-07T02:06:21.947Z,3.5
2017-03-07T02:06:40.580Z,3.5
2017-03-07T02:06:59.225Z,3.5
2017-03-07T02:07:17.858Z,3.5
2017-03-07T02:07:36.496Z,3.5
2017-03-07T02:07:55.154Z,3.5
2017-03-07T02:08:13.791Z,3.5
2017-03-07T02:08:32.440Z,3.5
2017-03-07T02:08:51.087Z,3.5
2017-03-07T02:09:09.722Z,3.5
2017-03-07T02:09:28.366Z,3.6
2017-03-07T02:09:47.009Z,3.6
2017-03-07T02:10:05.648Z,3.6
2017-03-07T02:10:24.282Z,3.6
2017-03-07T02:10:42.913Z,3.6
2017-03-07T02:11:01.552Z,3.6
2017-03-07T02:11:20.208Z,3.6
2017-03-07T02:11:38.846Z,3.6
2017-03-07T02:11:57.473Z,3.6
2017-03-07T02:12:16.106Z,3.6
2017-03-07T02:12:34.744Z,3.6
2017-03-07T02:12:53.415Z,3.6
2017-03-07T02:13:12.061Z,3.6
2017-03-07T02:13:30.723Z,3.6
2017-03-07T02:13:49.371Z,3.6
2017-03-07T02:14:08.004Z,3.6
2017-03-07T02:14:26.638Z,3.5
2017-03-07T02:14:45.279Z,3.5
2017-03-07T02:15:03.933Z,3.4
2017-03-07T02:15:22.569Z,3.4
2017-03-07T02:15:41.210Z,3.4
2017-03-07T02:15:59.870Z,3.3
2017-03-07T02:16:18.504Z,3.3
2017-03-07T02:16:37.140Z,3.3
2017-03-07T02:16:55.798Z,3.2
2017-03-07T02:17:14.433Z,3.2
2017-03-07T02:17:33.067Z,3.2
2017-03-07T02:17:51.711Z,3.2
2017-03-07T02:18:10.351Z,3.1
2017-03-07T02:18:28.999Z,3.1
2017-03-07T02:18:47.635Z,3.1
2017-03-07T02:19:06.284Z,3.1
2017-03-07T02:19:24.946Z,3.1
2017-03-07T02:19:43.598Z,3.1
2017-03-07T02:20:02.237Z,3.1
2017-03-07T02:20:20.911Z,3.1
2017-03-07T02:20:39.545Z,3.1
2017-03-07T02:20:58.185Z,3.1
2017-03-07T02:21:16.822Z,3.1
2017-03-07T02:21:35.457Z,3.1
2017-03-07T02:21:54.090Z,3
2017-03-07T02:22:12.722Z,3
2017-03-07T02:22:31.366Z,3
2017-03-07T02:22:50.033Z,3
2017-03-07T02:23:08.673Z,3
2017-03-07T02:23:27.307Z,3
2017-03-07T02:23:45.939Z,3
2017-03-07T02:24:04.576Z,3
2017-03-07T02:24:23.216Z,3
2017-03-07T02:24:41.849Z,3
2017-03-07T02:25:00.489Z,3
2017-03-07T02:25:19.128Z,3
2017-03-07T02:25:37.775Z,3
2017-03-07T02:25:56.427Z,3
2017-03-07T02:26:15.096Z,3
2017-03-07T02:26:33.743Z,3
2017-03-07T02:26:52.383Z,3
2017-03-07T02:27:11.013Z,3
2017-03-07T02:27:29.649Z,3
2017-03-07T02:27:48.289Z,3
2017-03-07T02:28:06.932Z,3
2017-03-07T02:28:25.566Z,3
2017-03-07T02:28:44.220Z,3
2017-03-07T02:29:02.853Z,3
2017-03-07T02:29:21.489Z,3
2017-03-07T02:29:40.136Z,3
2017-03-07T02:29:58.769Z,3
2017-03-07T02:30:17.402Z,3
2017-03-07T02:30:36.038Z,3
2017-03-07T02:30:54.689Z,3
2017-03-07T02:31:13.370Z,3
2017-03-07T02:31:32.008Z,3
2017-03-07T02:31:50.656Z,3
2017-03-07T02:32:09.305Z,3
2017-03-07T02:32:27.940Z,3
2017-03-07T02:32:46.581Z,3
2017-03-07T02:33:05.221Z,3
2017-03-07T02:33:23.857Z,3
2017-03-07T02:33:42.486Z,3.1
2017-03-07T02:34:01.127Z,3.1
2017-03-07T02:34:19.783Z,3.1
2017-03-07T02:34:38.430Z,3.1
2017-03-07T02:34:57.069Z,3.1
2017-03-07T02:35:15.700Z,3
2017-03-07T02:35:34.331Z,3
2017-03-07T02:35:52.978Z,3
2017-03-07T02:36:11.616Z,3
2017-03-07T02:36:30.250Z,3
2017-03-07T02:36:48.885Z,3
2017-03-07T02:37:07.526Z,3
2017-03-07T02:37:26.177Z,3
2017-03-07T02:37:44.837Z,3
2017-03-07T02:38:03.474Z,3
2017-03-07T02:38:22.106Z,3
2017-03-07T02:38:40.744Z,3
2017-03-07T02:38:59.404Z,3
2017-03-07T02:39:18.035Z,3
2017-03-07T02:39:36.669Z,2.9
2017-03-07T02:39:55.303Z,2.9
2017-03-07T02:40:13.945Z,2.9
2017-03-07T02:40:32.594Z,2.9
2017-03-07T02:40:51.242Z,2.9
2017-03-07T02:41:09.907Z,2.9
2017-03-07T02:41:28.557Z,2.9
2017-03-07T02:41:47.194Z,2.9
2017-03-07T02:42:05.829Z,2.9
2017-03-07T02:42:24.462Z,2.9
2017-03-07T02:42:43.094Z,2.9
2017-03-07T02:43:01.728Z,2.9
2017-03-07T02:43:20.363Z,2.9
2017-03-07T02:43:38.999Z,2.9
2017-03-07T02:43:57.657Z,2.9
2017-03-07T02:44:16.296Z,2.9
2017-03-07T02:44:34.960Z,2.9
2017-03-07T02:44:53.598Z,2.9
2017-03-07T02:45:12.242Z,2.9
2017-03-07T02:45:30.873Z,2.9
2017-03-07T02:45:49.505Z,2.9
2017-03-07T02:46:08.142Z,2.9
2017-03-07T02:46:26.774Z,2.9
2017-03-07T02:46:45.415Z,2.9
2017-03-07T02:47:04.056Z,2.9
2017-03-07T02:47:22.706Z,2.9
2017-03-07T02:47:41.345Z,2.9
2017-03-07T02:48:00.016Z,2.9
2017-03-07T02:48:18.660Z,2.9
2017-03-07T02:48:37.292Z,2.9
2017-03-07T02:48:55.925Z,2.9
2017-03-07T02:49:14.567Z,2.9
2017-03-07T02:49:33.203Z,2.9
2017-03-07T02:49:51.843Z,2.9
2017-03-07T02:50:10.478Z,2.9
2017-03-07T02:50:29.112Z,2.9
2017-03-07T02:50:47.758Z,2.9
2017-03-07T02:51:06.393Z,2.9
2017-03-07T02:51:25.043Z,2.9
2017-03-07T02:51:43.676Z,2.9
2017-03-07T02:52:02.323Z,2.9
2017-03-07T02:52:20.961Z,2.9
2017-03-07T02:52:39.603Z,2.9
2017-03-07T02:52:58.277Z,2.9
2017-03-07T02:53:16.911Z,2.9
2017-03-07T02:53:35.552Z,2.8
2017-03-07T02:53:54.187Z,2.8
2017-03-07T02:54:12.828Z,2.8
2017-03-07T02:54:31.475Z,2.9
2017-03-07T02:54:50.112Z,2.9
2017-03-07T02:55:08.751Z,2.9
2017-03-07T02:55:27.390Z,2.8
2017-03-07T02:55:46.029Z,2.8
2017-03-07T02:56:04.677Z,2.8
2017-03-07T02:56:23.327Z,2.8
2017-03-07T02:56:41.966Z,2.8
2017-03-07T02:57:00.604Z,2.8
2017-03-07T02:57:19.280Z,2.8
2017-03-07T02:57:37.918Z,2.8
2017-03-07T02:57:56.558Z,2.8
2017-03-07T02:58:15.193Z,2.8
2017-03-07T02:58:33.830Z,2.8
2017-03-07T02:58:52.467Z,2.8
2017-03-07T02:59:11.109Z,2.9
2017-03-07T02:59:29.777Z,2.8
2017-03-07T02:59:48.423Z,2.9
2017-03-07T03:00:07.051Z,2.8
2017-03-07T03:00:25.683Z,2.8
2017-03-07T03:00:44.315Z,2.8
2017-03-07T03:01:02.964Z,2.9
2017-03-07T03:01:21.603Z,2.8
2017-03-07T03:01:40.242Z,2.8
2017-03-07T03:01:58.885Z,2.8
2017-03-07T03:02:17.534Z,2.8
2017-03-07T03:02:36.188Z,2.8
2017-03-07T03:02:54.852Z,2.8
2017-03-07T03:03:13.484Z,2.8
2017-03-07T03:03:32.120Z,2.8
2017-03-07T03:03:50.757Z,2.8
2017-03-07T03:04:09.405Z,2.8
2017-03-07T03:04:28.052Z,2.8
2017-03-07T03:04:46.694Z,2.8
2017-03-07T03:05:05.330Z,2.8
2017-03-07T03:05:23.967Z,2.8
2017-03-07T03:05:42.603Z,2.8
2017-03-07T03:06:01.253Z,2.8
2017-03-07T03:06:19.912Z,2.8
2017-03-07T03:06:38.542Z,2.8
2017-03-07T03:06:57.179Z,2.8
2017-03-07T03:07:15.823Z,2.8
2017-03-07T03:07:34.456Z,2.8
2017-03-07T03:07:53.121Z,2.8
2017-03-07T03:08:11.761Z,2.8
2017-03-07T03:08:30.404Z,2.8
2017-03-07T03:08:49.036Z,2.8
2017-03-07T03:09:07.675Z,2.8
2017-03-07T03:09:26.316Z,2.8
2017-03-07T03:09:44.978Z,2.8
2017-03-07T03:10:03.621Z,2.8
2017-03-07T03:10:22.270Z,2.8
2017-03-07T03:10:40.923Z,2.8
2017-03-07T03:10:59.580Z,2.8
2017-03-07T03:11:18.246Z,2.8
2017-03-07T03:11:36.880Z,2.8
2017-03-07T03:11:55.518Z,2.8
2017-03-07T03:12:14.157Z,2.8
2017-03-07T03:12:32.814Z,2.8
2017-03-07T03:12:51.453Z,2.8
2017-03-07T03:13:10.101Z,2.8
2017-03-07T03:13:28.749Z,2.7
2017-03-07T03:13:47.387Z,2.7
2017-03-07T03:14:06.023Z,2.7
2017-03-07T03:14:24.708Z,2.7
2017-03-07T03:14:43.345Z,2.7
2017-03-07T03:15:01.983Z,2.7
2017-03-07T03:15:20.618Z,2.7
2017-03-07T03:15:39.254Z,2.7
2017-03-07T03:15:57.898Z,2.7
2017-03-07T03:16:16.536Z,2.7
2017-03-07T03:16:35.174Z,2.7
2017-03-07T03:16:53.812Z,2.7
2017-03-07T03:17:12.449Z,2.7
2017-03-07T03:17:31.088Z,2.7
2017-03-07T03:17:49.748Z,2.7
2017-03-07T03:18:08.379Z,2.7
2017-03-07T03:18:27.036Z,2.7
2017-03-07T03:18:45.672Z,2.7
2017-03-07T03:19:04.315Z,2.7
2017-03-07T03:19:22.950Z,2.7
2017-03-07T03:19:41.585Z,2.7
2017-03-07T03:20:00.222Z,2.7
2017-03-07T03:20:18.862Z,2.7
2017-03-07T03:20:37.509Z,2.7
2017-03-07T03:20:56.156Z,2.7
2017-03-07T03:21:14.817Z,2.7
2017-03-07T03:21:33.464Z,2.7
2017-03-07T03:21:52.104Z,2.7
2017-03-07T03:22:10.739Z,2.7
2017-03-07T03:22:29.372Z,2.7
2017-03-07T03:22:48.014Z,2.7
2017-03-07T03:23:06.663Z,2.7
2017-03-07T03:23:25.304Z,2.6
2017-03-07T03:23:43.941Z,2.6
2017-03-07T03:24:02.588Z,2.6
2017-03-07T03:24:21.223Z,2.6
2017-03-07T03:24:39.884Z,2.5
2017-03-07T03:24:58.529Z,2.5
2017-03-07T03:25:17.161Z,2.5
2017-03-07T03:25:35.797Z,2.5
2017-03-07T03:25:54.430Z,2.5
2017-03-07T03:26:13.100Z,2.5
2017-03-07T03:26:31.744Z,2.5
2017-03-07T03:26:50.383Z,2.5
2017-03-07T03:27:09.019Z,2.5
2017-03-07T03:27:27.692Z,2.5
2017-03-07T03:27:46.325Z,2.5
2017-03-07T03:28:04.959Z,2.5
2017-03-07T03:28:23.598Z,2.5
2017-03-07T03:28:42.236Z,2.5
2017-03-07T03:29:00.892Z,2.5
2017-03-07T03:29:19.545Z,2.5
2017-03-07T03:29:38.194Z,2.5
2017-03-07T03:29:56.829Z,2.5
2017-03-07T03:30:15.466Z,2.5
2017-03-07T03:30:34.106Z,2.5
2017-03-07T03:30:52.740Z,2.5
2017-03-07T03:31:11.377Z,2.5
2017-03-07T03:31:30.017Z,2.5
2017-03-07T03:31:48.652Z,2.5
2017-03-07T03:32:07.285Z,2.5
2017-03-07T03:32:25.919Z,2.5
2017-03-07T03:32:44.580Z,2.5
2017-03-07T03:33:03.217Z,2.5
2017-03-07T03:33:21.848Z,2.5
2017-03-07T03:33:40.494Z,2.5
2017-03-07T03:33:59.138Z,2.5
2017-03-07T03:34:17.786Z,2.5
2017-03-07T03:34:36.423Z,2.5
2017-03-07T03:34:55.079Z,2.5
2017-03-07T03:35:13.718Z,2.5
2017-03-07T03:35:32.357Z,2.5
2017-03-07T03:35:50.994Z,2.5
2017-03-07T03:36:09.663Z,2.5
2017-03-07T03:36:28.309Z,2.5
2017-03-07T03:36:46.947Z,2.5
2017-03-07T03:37:05.588Z,2.5
2017-03-07T03:37:24.224Z,2.5
2017-03-07T03:37:42.859Z,2.5
2017-03-07T03:38:01.490Z,2.5
2017-03-07T03:38:20.124Z,2.5
2017-03-07T03:38:38.771Z,2.4
2017-03-07T03:38:57.414Z,2.4
2017-03-07T03:39:16.049Z,2.4
2017-03-07T03:39:34.717Z,2.4
2017-03-07T03:39:53.350Z,2.4
2017-03-07T03:40:12.002Z,2.4
2017-03-07T03:40:30.641Z,2.4
2017-03-07T03:40:49.280Z,2.4
2017-03-07T03:41:07.920Z,2.4
2017-03-07T03:41:26.565Z,2.4
2017-03-07T03:41:45.206Z,2.4
2017-03-07T03:42:03.853Z,2.4
2017-03-07T03:42:22.490Z,2.4
2017-03-07T03:42:41.131Z,2.4
2017-03-07T03:42:59.789Z,2.4
2017-03-07T03:43:18.431Z,2.4
2017-03-07T03:43:37.066Z,2.4
2017-03-07T03:43:55.713Z,2.4
2017-03-07T03:44:14.341Z,2.4
2017-03-07T03:44:32.986Z,2.4
2017-03-07T03:44:51.633Z,2.4
2017-03-07T03:45:10.265Z,2.4
2017-03-07T03:45:28.896Z,2.4
2017-03-07T03:45:47.526Z,2.4
2017-03-07T03:46:06.158Z,2.4
2017-03-07T03:46:24.821Z,2.4
2017-03-07T03:46:43.466Z,2.4
2017-03-07T03:47:02.101Z,2.4
2017-03-07T03:47:20.736Z,2.4
2017-03-07T03:47:39.370Z,2.4
2017-03-07T03:47:58.052Z,2.4
2017-03-07T03:48:16.685Z,2.4
2017-03-07T03:48:35.320Z,2.4
2017-03-07T03:48:53.960Z,2.4
2017-03-07T03:49:12.609Z,2.4
2017-03-07T03:49:31.248Z,2.4
2017-03-07T03:49:49.884Z,2.4
2017-03-07T03:50:08.548Z,2.4
2017-03-07T03:50:27.190Z,2.4
2017-03-07T03:50:45.828Z,2.4
2017-03-07T03:51:04.482Z,2.4
2017-03-07T03:51:23.117Z,2.4
2017-03-07T03:51:41.750Z,2.4
2017-03-07T03:52:00.382Z,2.4
2017-03-07T03:52:19.024Z,2.4
2017-03-07T03:52:37.654Z,2.4
2017-03-07T03:52:56.290Z,2.4
2017-03-07T03:53:14.933Z,2.4
2017-03-07T03:53:33.580Z,2.4
2017-03-07T03:53:52.237Z,2.4
2017-03-07T03:54:10.875Z,2.4
2017-03-07T03:54:29.544Z,2.4
2017-03-07T03:54:48.187Z,2.4
2017-03-07T03:55:06.831Z,2.4
2017-03-07T03:55:25.482Z,2.4
2017-03-07T03:55:44.132Z,2.4
2017-03-07T03:56:02.777Z,2.4
2017-03-07T03:56:21.426Z,2.3
2017-03-07T03:56:40.067Z,2.4
2017-03-07T03:56:58.703Z,2.3
2017-03-07T03:57:17.340Z,2.3
2017-03-07T03:57:35.991Z,2.3
2017-03-07T03:57:54.658Z,2.3
2017-03-07T03:58:13.292Z,2.3
2017-03-07T03:58:31.924Z,2.3
2017-03-07T03:58:50.555Z,2.3
2017-03-07T03:59:09.196Z,2.3
2017-03-07T03:59:27.838Z,2.3
2017-03-07T03:59:46.465Z,2.3
2017-03-07T04:00:05.117Z,2.3
2017-03-07T04:00:23.765Z,2.3
2017-03-07T04:00:42.424Z,2.3
2017-03-07T04:01:01.059Z,2.3
2017-03-07T04:01:19.724Z,2.3
2017-03-07T04:01:38.354Z,2.3
2017-03-07T04:01:57.002Z,2.3
2017-03-07T04:02:15.659Z,2.3
2017-03-07T04:02:34.295Z,2.3
2017-03-07T04:02:52.970Z,2.3
2017-03-07T04:03:11.647Z,2.3
2017-03-07T04:03:30.295Z,2.2
2017-03-07T04:03:48.930Z,2.2
2017-03-07T04:04:07.565Z,2.2
2017-03-07T04:04:26.199Z,2.2
2017-03-07T04:04:44.841Z,2.2
2017-03-07T04:05:03.482Z,2.2
2017-03-07T04:05:22.123Z,2.2
2017-03-07T04:05:40.760Z,2.2
2017-03-07T04:05:59.417Z,2.2
2017-03-07T04:06:18.066Z,2.2
2017-03-07T04:06:36.700Z,2.2
2017-03-07T04:06:55.349Z,2.2
2017-03-07T04:07:13.996Z,2.2
2017-03-07T04:07:32.627Z,2.2
2017-03-07T04:07:51.263Z,2.2
2017-03-07T04:08:09.899Z,2.2
2017-03-07T04:08:28.532Z,2.2
2017-03-07T04:08:47.180Z,2.3
2017-03-07T04:09:05.815Z,2.3
2017-03-07T04:09:24.473Z,2.3
2017-03-07T04:09:43.112Z,2.3
2017-03-07T04:10:01.747Z,2.3
2017-03-07T04:10:20.389Z,2.3
2017-03-07T04:10:39.022Z,2.3
2017-03-07T04:10:57.663Z,2.3
2017-03-07T04:11:16.324Z,2.3
2017-03-07T04:11:34.960Z,2.3
2017-03-07T04:11:53.603Z,2.3
2017-03-07T04:12:12.248Z,2.3
2017-03-07T04:12:30.887Z,2.3
2017-03-07T04:12:49.550Z,2.3
2017-03-07T04:13:08.189Z,2.3
2017-03-07T04:13:26.829Z,2.3
2017-03-07T04:13:45.492Z,2.3
2017-03-07T04:14:04.132Z,2.3
2017-03-07T04:14:22.765Z,2.3
2017-03-07T04:14:41.398Z,2.2
2017-03-07T04:15:00.030Z,2.3
2017-03-07T04:15:18.684Z,2.3
2017-03-07T04:15:37.315Z,2.3
2017-03-07T04:15:55.958Z,2.3
2017-03-07T04:16:14.626Z,2.3
2017-03-07T04:16:33.280Z,2.3
2017-03-07T04:16:51.928Z,2.3
2017-03-07T04:17:10.564Z,2.3
2017-03-07T04:17:29.209Z,2.3
2017-03-07T04:17:47.904Z,2.3
2017-03-07T04:18:06.549Z,2.3
2017-03-07T04:18:25.200Z,2.2
2017-03-07T04:18:43.833Z,2.2